sensor_id;sensor_type;location;lat;lon;timestamp;temperature;humidity
58568;DHT22;44354;46.192;-1.076;2022-08-01T00:01:53;17.60;1.00
58568;DHT22;44354;46.192;-1.076;2022-08-01T00:04:18;17.60;1.00
58568;DHT22;44354;46.192;-1.076;2022-08-01T00:06:44;17.50;5.70
58568;DHT22;44354;46.192;-1.076;2022-08-01T00:09:10;17.50;14.40
58568;DHT22;44354;46.192;-1.076;2022-08-01T00:11:36;17.50;28.10
58568;DHT22;44354;46.192;-1.076;2022-08-01T00:14:01;17.40;42.70
58568;DHT22;44354;46.192;-1.076;2022-08-01T00:16:27;17.50;61.20
58568;DHT22;44354;46.192;-1.076;2022-08-01T00:18:53;17.40;63.70
58568;DHT22;44354;46.192;-1.076;2022-08-01T00:21:19;17.40;66.20
58568;DHT22;44354;46.192;-1.076;2022-08-01T00:23:45;17.40;79.80
58568;DHT22;44354;46.192;-1.076;2022-08-01T00:26:12;17.50;80.10
58568;DHT22;44354;46.192;-1.076;2022-08-01T00:28:37;17.40;91.50
58568;DHT22;44354;46.192;-1.076;2022-08-01T00:31:03;17.40;99.90
58568;DHT22;44354;46.192;-1.076;2022-08-01T00:33:29;17.40;99.90
58568;DHT22;44354;46.192;-1.076;2022-08-01T00:35:55;17.40;99.90
58568;DHT22;44354;46.192;-1.076;2022-08-01T00:38:21;17.40;99.90
58568;DHT22;44354;46.192;-1.076;2022-08-01T00:40:47;17.40;99.90
58568;DHT22;44354;46.192;-1.076;2022-08-01T00:43:13;17.40;99.90
58568;DHT22;44354;46.192;-1.076;2022-08-01T00:45:39;17.40;99.90
58568;DHT22;44354;46.192;-1.076;2022-08-01T00:48:04;17.40;99.90
58568;DHT22;44354;46.192;-1.076;2022-08-01T00:50:30;17.30;99.90
58568;DHT22;44354;46.192;-1.076;2022-08-01T00:52:58;17.40;99.90
58568;DHT22;44354;46.192;-1.076;2022-08-01T00:55:28;17.40;99.90
58568;DHT22;44354;46.192;-1.076;2022-08-01T00:57:55;17.30;99.90
58568;DHT22;44354;46.192;-1.076;2022-08-01T01:00:22;17.20;99.90
58568;DHT22;44354;46.192;-1.076;2022-08-01T01:02:48;17.20;99.90
58568;DHT22;44354;46.192;-1.076;2022-08-01T01:05:14;17.20;99.90
58568;DHT22;44354;46.192;-1.076;2022-08-01T01:08:22;17.20;99.90
58568;DHT22;44354;46.192;-1.076;2022-08-01T01:11:00;17.20;99.90
58568;DHT22;44354;46.192;-1.076;2022-08-01T01:15:59;17.20;99.90
58568;DHT22;44354;46.192;-1.076;2022-08-01T01:18:33;17.20;99.90
58568;DHT22;44354;46.192;-1.076;2022-08-01T01:26:58;17.20;99.90
58568;DHT22;44354;46.192;-1.076;2022-08-01T01:29:41;17.20;99.90
58568;DHT22;44354;46.192;-1.076;2022-08-01T01:34:44;17.20;99.90
58568;DHT22;44354;46.192;-1.076;2022-08-01T01:37:15;17.10;99.90
58568;DHT22;44354;46.192;-1.076;2022-08-01T01:39:42;17.10;99.90
58568;DHT22;44354;46.192;-1.076;2022-08-01T01:42:09;17.00;99.90
58568;DHT22;44354;46.192;-1.076;2022-08-01T01:44:37;17.10;99.90
58568;DHT22;44354;46.192;-1.076;2022-08-01T01:47:03;17.10;99.90
58568;DHT22;44354;46.192;-1.076;2022-08-01T01:49:30;17.10;99.90
58568;DHT22;44354;46.192;-1.076;2022-08-01T01:51:58;17.00;99.90
58568;DHT22;44354;46.192;-1.076;2022-08-01T01:54:30;17.00;99.90
58568;DHT22;44354;46.192;-1.076;2022-08-01T01:56:58;17.00;99.90
58568;DHT22;44354;46.192;-1.076;2022-08-01T01:59:28;17.00;99.90
58568;DHT22;44354;46.192;-1.076;2022-08-01T02:01:56;17.00;99.90
58568;DHT22;44354;46.192;-1.076;2022-08-01T02:04:24;16.90;99.90
58568;DHT22;44354;46.192;-1.076;2022-08-01T02:06:51;16.90;99.90
58568;DHT22;44354;46.192;-1.076;2022-08-01T02:09:20;16.90;99.90
58568;DHT22;44354;46.192;-1.076;2022-08-01T02:11:48;16.90;99.90
58568;DHT22;44354;46.192;-1.076;2022-08-01T02:14:16;16.80;99.90
58568;DHT22;44354;46.192;-1.076;2022-08-01T02:16:46;16.80;99.90
58568;DHT22;44354;46.192;-1.076;2022-08-01T02:19:13;16.80;99.90
58568;DHT22;44354;46.192;-1.076;2022-08-01T02:21:45;16.80;99.90
58568;DHT22;44354;46.192;-1.076;2022-08-01T02:26:49;16.80;99.90
58568;DHT22;44354;46.192;-1.076;2022-08-01T02:29:22;16.80;99.90
58568;DHT22;44354;46.192;-1.076;2022-08-01T02:31:51;16.70;99.90
58568;DHT22;44354;46.192;-1.076;2022-08-01T02:34:21;16.70;99.90
58568;DHT22;44354;46.192;-1.076;2022-08-01T02:36:48;16.70;99.90
58568;DHT22;44354;46.192;-1.076;2022-08-01T02:39:17;16.70;99.90
58568;DHT22;44354;46.192;-1.076;2022-08-01T02:41:47;16.70;99.90
58568;DHT22;44354;46.192;-1.076;2022-08-01T02:44:23;16.70;99.90
58568;DHT22;44354;46.192;-1.076;2022-08-01T02:46:54;16.70;99.90
58568;DHT22;44354;46.192;-1.076;2022-08-01T02:49:23;16.70;99.90
58568;DHT22;44354;46.192;-1.076;2022-08-01T02:51:49;16.70;99.90
58568;DHT22;44354;46.192;-1.076;2022-08-01T02:54:18;16.70;99.90
58568;DHT22;44354;46.192;-1.076;2022-08-01T02:56:47;16.70;99.90
58568;DHT22;44354;46.192;-1.076;2022-08-01T02:59:17;16.70;99.90
58568;DHT22;44354;46.192;-1.076;2022-08-01T03:01:45;16.70;99.90
58568;DHT22;44354;46.192;-1.076;2022-08-01T03:04:12;16.70;99.90
58568;DHT22;44354;46.192;-1.076;2022-08-01T03:06:40;16.70;99.90
58568;DHT22;44354;46.192;-1.076;2022-08-01T03:09:07;16.70;99.90
58568;DHT22;44354;46.192;-1.076;2022-08-01T03:11:35;16.70;99.90
58568;DHT22;44354;46.192;-1.076;2022-08-01T03:14:05;16.70;99.90
58568;DHT22;44354;46.192;-1.076;2022-08-01T03:16:33;16.70;99.90
58568;DHT22;44354;46.192;-1.076;2022-08-01T03:19:01;16.70;99.90
58568;DHT22;44354;46.192;-1.076;2022-08-01T03:21:28;16.70;99.90
58568;DHT22;44354;46.192;-1.076;2022-08-01T03:23:57;16.80;99.90
58568;DHT22;44354;46.192;-1.076;2022-08-01T03:26:29;16.70;99.90
58568;DHT22;44354;46.192;-1.076;2022-08-01T03:28:58;16.70;99.90
58568;DHT22;44354;46.192;-1.076;2022-08-01T03:31:25;16.70;99.90
58568;DHT22;44354;46.192;-1.076;2022-08-01T03:33:52;16.70;99.90
58568;DHT22;44354;46.192;-1.076;2022-08-01T03:36:21;16.70;99.90
58568;DHT22;44354;46.192;-1.076;2022-08-01T03:38:50;16.70;99.90
58568;DHT22;44354;46.192;-1.076;2022-08-01T03:41:20;16.60;99.90
58568;DHT22;44354;46.192;-1.076;2022-08-01T03:43:56;16.60;99.90
58568;DHT22;44354;46.192;-1.076;2022-08-01T03:46:26;16.60;99.90
58568;DHT22;44354;46.192;-1.076;2022-08-01T03:48:55;16.60;99.90
58568;DHT22;44354;46.192;-1.076;2022-08-01T03:51:24;16.50;99.90
58568;DHT22;44354;46.192;-1.076;2022-08-01T03:53:51;16.50;99.90
58568;DHT22;44354;46.192;-1.076;2022-08-01T03:56:21;16.50;99.90
58568;DHT22;44354;46.192;-1.076;2022-08-01T03:58:49;16.40;99.90
58568;DHT22;44354;46.192;-1.076;2022-08-01T04:01:16;16.40;99.90
58568;DHT22;44354;46.192;-1.076;2022-08-01T04:03:43;16.50;99.90
58568;DHT22;44354;46.192;-1.076;2022-08-01T04:06:09;16.40;99.90
58568;DHT22;44354;46.192;-1.076;2022-08-01T04:08:38;16.50;99.90
58568;DHT22;44354;46.192;-1.076;2022-08-01T04:11:05;16.40;99.90
58568;DHT22;44354;46.192;-1.076;2022-08-01T04:13:33;16.40;99.90
58568;DHT22;44354;46.192;-1.076;2022-08-01T04:15:59;16.40;99.90
58568;DHT22;44354;46.192;-1.076;2022-08-01T04:18:24;16.40;99.90
58568;DHT22;44354;46.192;-1.076;2022-08-01T04:20:50;16.40;99.90
58568;DHT22;44354;46.192;-1.076;2022-08-01T04:23:18;16.40;99.90
58568;DHT22;44354;46.192;-1.076;2022-08-01T04:25:46;16.40;99.90
58568;DHT22;44354;46.192;-1.076;2022-08-01T04:28:14;16.40;99.90
58568;DHT22;44354;46.192;-1.076;2022-08-01T04:30:43;16.40;99.90
58568;DHT22;44354;46.192;-1.076;2022-08-01T04:33:13;16.40;99.90
58568;DHT22;44354;46.192;-1.076;2022-08-01T04:35:43;16.40;99.90
58568;DHT22;44354;46.192;-1.076;2022-08-01T04:38:11;16.40;99.90
58568;DHT22;44354;46.192;-1.076;2022-08-01T04:40:40;16.30;99.90
58568;DHT22;44354;46.192;-1.076;2022-08-01T04:43:07;16.30;99.90
58568;DHT22;44354;46.192;-1.076;2022-08-01T04:45:33;16.30;99.90
58568;DHT22;44354;46.192;-1.076;2022-08-01T04:48:00;16.30;99.90
58568;DHT22;44354;46.192;-1.076;2022-08-01T04:50:26;16.30;99.90
58568;DHT22;44354;46.192;-1.076;2022-08-01T04:52:52;16.20;99.90
58568;DHT22;44354;46.192;-1.076;2022-08-01T04:55:18;16.30;99.90
58568;DHT22;44354;46.192;-1.076;2022-08-01T04:57:45;16.30;99.90
58568;DHT22;44354;46.192;-1.076;2022-08-01T05:00:12;16.30;99.90
58568;DHT22;44354;46.192;-1.076;2022-08-01T05:02:38;16.40;99.90
58568;DHT22;44354;46.192;-1.076;2022-08-01T05:05:04;16.40;99.90
58568;DHT22;44354;46.192;-1.076;2022-08-01T05:07:32;16.30;99.90
58568;DHT22;44354;46.192;-1.076;2022-08-01T05:09:58;16.30;99.90
58568;DHT22;44354;46.192;-1.076;2022-08-01T05:12:23;16.40;99.90
58568;DHT22;44354;46.192;-1.076;2022-08-01T05:14:49;16.40;99.90
58568;DHT22;44354;46.192;-1.076;2022-08-01T05:17:14;16.40;99.90
58568;DHT22;44354;46.192;-1.076;2022-08-01T05:19:41;16.40;99.90
58568;DHT22;44354;46.192;-1.076;2022-08-01T05:22:09;16.50;99.90
58568;DHT22;44354;46.192;-1.076;2022-08-01T05:24:37;16.50;99.90
58568;DHT22;44354;46.192;-1.076;2022-08-01T05:27:04;16.50;99.90
58568;DHT22;44354;46.192;-1.076;2022-08-01T05:29:30;16.40;99.90
58568;DHT22;44354;46.192;-1.076;2022-08-01T05:31:56;16.50;99.90
58568;DHT22;44354;46.192;-1.076;2022-08-01T05:34:23;16.40;99.90
58568;DHT22;44354;46.192;-1.076;2022-08-01T05:36:48;16.50;99.90
58568;DHT22;44354;46.192;-1.076;2022-08-01T05:39:14;16.60;99.90
58568;DHT22;44354;46.192;-1.076;2022-08-01T05:41:40;16.60;99.90
58568;DHT22;44354;46.192;-1.076;2022-08-01T05:44:07;16.60;99.90
58568;DHT22;44354;46.192;-1.076;2022-08-01T05:46:33;16.60;99.90
58568;DHT22;44354;46.192;-1.076;2022-08-01T05:48:59;16.60;99.90
58568;DHT22;44354;46.192;-1.076;2022-08-01T05:51:26;16.60;99.90
58568;DHT22;44354;46.192;-1.076;2022-08-01T05:53:52;16.60;99.90
58568;DHT22;44354;46.192;-1.076;2022-08-01T05:56:19;16.70;99.90
58568;DHT22;44354;46.192;-1.076;2022-08-01T05:58:45;16.70;99.90
58568;DHT22;44354;46.192;-1.076;2022-08-01T06:01:11;16.70;99.90
58568;DHT22;44354;46.192;-1.076;2022-08-01T06:03:37;16.70;99.90
58568;DHT22;44354;46.192;-1.076;2022-08-01T06:06:03;16.70;99.90
58568;DHT22;44354;46.192;-1.076;2022-08-01T06:08:29;16.80;99.90
58568;DHT22;44354;46.192;-1.076;2022-08-01T06:10:55;16.90;99.90
58568;DHT22;44354;46.192;-1.076;2022-08-01T06:13:20;16.90;99.90
58568;DHT22;44354;46.192;-1.076;2022-08-01T06:15:46;17.00;99.90
58568;DHT22;44354;46.192;-1.076;2022-08-01T06:18:13;17.00;99.90
58568;DHT22;44354;46.192;-1.076;2022-08-01T06:20:39;17.10;99.90
58568;DHT22;44354;46.192;-1.076;2022-08-01T06:23:04;17.20;99.90
58568;DHT22;44354;46.192;-1.076;2022-08-01T06:25:30;17.30;99.90
58568;DHT22;44354;46.192;-1.076;2022-08-01T06:27:56;17.30;99.90
58568;DHT22;44354;46.192;-1.076;2022-08-01T06:30:22;17.30;99.90
58568;DHT22;44354;46.192;-1.076;2022-08-01T06:32:47;17.40;99.90
58568;DHT22;44354;46.192;-1.076;2022-08-01T06:35:14;17.50;99.90
58568;DHT22;44354;46.192;-1.076;2022-08-01T06:37:40;17.60;99.90
58568;DHT22;44354;46.192;-1.076;2022-08-01T06:40:08;17.60;99.90
58568;DHT22;44354;46.192;-1.076;2022-08-01T06:42:34;17.60;99.90
58568;DHT22;44354;46.192;-1.076;2022-08-01T06:45:08;17.70;99.90
58568;DHT22;44354;46.192;-1.076;2022-08-01T06:47:35;17.70;99.90
58568;DHT22;44354;46.192;-1.076;2022-08-01T06:50:01;17.80;99.90
58568;DHT22;44354;46.192;-1.076;2022-08-01T06:52:26;17.80;99.90
58568;DHT22;44354;46.192;-1.076;2022-08-01T06:54:52;17.90;99.90
58568;DHT22;44354;46.192;-1.076;2022-08-01T06:57:18;17.80;99.90
58568;DHT22;44354;46.192;-1.076;2022-08-01T06:59:44;17.80;99.90
58568;DHT22;44354;46.192;-1.076;2022-08-01T07:02:10;18.00;99.90
58568;DHT22;44354;46.192;-1.076;2022-08-01T07:04:36;18.10;99.90
58568;DHT22;44354;46.192;-1.076;2022-08-01T07:07:01;18.10;99.90
58568;DHT22;44354;46.192;-1.076;2022-08-01T07:09:27;18.20;99.90
58568;DHT22;44354;46.192;-1.076;2022-08-01T07:11:53;18.30;99.90
58568;DHT22;44354;46.192;-1.076;2022-08-01T07:14:20;18.30;99.90
58568;DHT22;44354;46.192;-1.076;2022-08-01T07:16:46;18.40;99.90
58568;DHT22;44354;46.192;-1.076;2022-08-01T07:19:12;18.50;99.90
58568;DHT22;44354;46.192;-1.076;2022-08-01T07:21:38;18.60;99.90
58568;DHT22;44354;46.192;-1.076;2022-08-01T07:24:05;18.60;99.90
58568;DHT22;44354;46.192;-1.076;2022-08-01T07:26:31;18.80;99.90
58568;DHT22;44354;46.192;-1.076;2022-08-01T07:28:58;18.80;99.90
58568;DHT22;44354;46.192;-1.076;2022-08-01T07:31:23;18.90;99.90
58568;DHT22;44354;46.192;-1.076;2022-08-01T07:33:50;19.10;99.90
58568;DHT22;44354;46.192;-1.076;2022-08-01T07:36:16;19.20;99.90
58568;DHT22;44354;46.192;-1.076;2022-08-01T07:38:42;19.40;99.90
58568;DHT22;44354;46.192;-1.076;2022-08-01T07:41:08;19.60;99.90
58568;DHT22;44354;46.192;-1.076;2022-08-01T07:43:34;19.70;99.90
58568;DHT22;44354;46.192;-1.076;2022-08-01T07:46:04;19.70;82.70
58568;DHT22;44354;46.192;-1.076;2022-08-01T07:48:30;19.70;51.40
58568;DHT22;44354;46.192;-1.076;2022-08-01T07:50:56;19.90;30.10
58568;DHT22;44354;46.192;-1.076;2022-08-01T07:53:21;20.00;9.50
58568;DHT22;44354;46.192;-1.076;2022-08-01T07:55:47;20.10;1.00
58568;DHT22;44354;46.192;-1.076;2022-08-01T07:58:14;20.20;1.00
58568;DHT22;44354;46.192;-1.076;2022-08-01T08:00:40;20.20;1.00
58568;DHT22;44354;46.192;-1.076;2022-08-01T08:03:05;20.30;1.00
58568;DHT22;44354;46.192;-1.076;2022-08-01T08:05:31;20.50;1.00
58568;DHT22;44354;46.192;-1.076;2022-08-01T08:08:01;20.70;1.00
58568;DHT22;44354;46.192;-1.076;2022-08-01T08:10:27;21.00;1.00
58568;DHT22;44354;46.192;-1.076;2022-08-01T08:12:52;21.20;99.90
58568;DHT22;44354;46.192;-1.076;2022-08-01T08:15:18;21.30;99.90
58568;DHT22;44354;46.192;-1.076;2022-08-01T08:17:44;21.50;99.90
58568;DHT22;44354;46.192;-1.076;2022-08-01T08:20:10;21.70;99.90
58568;DHT22;44354;46.192;-1.076;2022-08-01T08:22:36;21.90;99.90
58568;DHT22;44354;46.192;-1.076;2022-08-01T08:25:02;22.00;99.90
58568;DHT22;44354;46.192;-1.076;2022-08-01T08:27:28;22.10;99.90
58568;DHT22;44354;46.192;-1.076;2022-08-01T08:29:53;22.30;99.90
58568;DHT22;44354;46.192;-1.076;2022-08-01T08:32:19;22.50;99.90
58568;DHT22;44354;46.192;-1.076;2022-08-01T08:34:44;22.60;99.90
58568;DHT22;44354;46.192;-1.076;2022-08-01T08:37:11;22.70;99.90
58568;DHT22;44354;46.192;-1.076;2022-08-01T08:39:36;22.60;99.90
58568;DHT22;44354;46.192;-1.076;2022-08-01T08:42:06;22.80;99.90
58568;DHT22;44354;46.192;-1.076;2022-08-01T08:44:32;23.00;99.90
58568;DHT22;44354;46.192;-1.076;2022-08-01T08:47:01;23.00;99.90
58568;DHT22;44354;46.192;-1.076;2022-08-01T08:49:29;23.00;99.90
58568;DHT22;44354;46.192;-1.076;2022-08-01T08:51:59;23.30;99.90
58568;DHT22;44354;46.192;-1.076;2022-08-01T08:54:25;23.50;99.90
58568;DHT22;44354;46.192;-1.076;2022-08-01T08:56:54;23.70;99.90
58568;DHT22;44354;46.192;-1.076;2022-08-01T08:59:21;23.60;99.90
58568;DHT22;44354;46.192;-1.076;2022-08-01T09:01:49;23.70;99.90
58568;DHT22;44354;46.192;-1.076;2022-08-01T09:04:15;24.00;99.90
58568;DHT22;44354;46.192;-1.076;2022-08-01T09:06:41;24.20;99.90
58568;DHT22;44354;46.192;-1.076;2022-08-01T09:09:08;24.40;99.90
58568;DHT22;44354;46.192;-1.076;2022-08-01T09:11:34;24.50;99.90
58568;DHT22;44354;46.192;-1.076;2022-08-01T09:14:05;24.40;99.90
58568;DHT22;44354;46.192;-1.076;2022-08-01T09:16:33;24.20;99.90
58568;DHT22;44354;46.192;-1.076;2022-08-01T09:19:07;24.20;99.90
58568;DHT22;44354;46.192;-1.076;2022-08-01T09:21:33;24.40;99.90
58568;DHT22;44354;46.192;-1.076;2022-08-01T09:23:58;24.40;99.90
58568;DHT22;44354;46.192;-1.076;2022-08-01T09:26:34;24.80;99.90
58568;DHT22;44354;46.192;-1.076;2022-08-01T09:29:04;24.90;99.90
58568;DHT22;44354;46.192;-1.076;2022-08-01T09:31:40;25.00;99.90
58568;DHT22;44354;46.192;-1.076;2022-08-01T09:34:07;25.30;99.90
58568;DHT22;44354;46.192;-1.076;2022-08-01T09:36:49;25.50;99.90
58568;DHT22;44354;46.192;-1.076;2022-08-01T09:39:32;25.10;99.90
58568;DHT22;44354;46.192;-1.076;2022-08-01T09:42:01;25.00;99.90
58568;DHT22;44354;46.192;-1.076;2022-08-01T09:44:44;24.90;99.90
58568;DHT22;44354;46.192;-1.076;2022-08-01T09:47:11;25.00;99.90
58568;DHT22;44354;46.192;-1.076;2022-08-01T09:49:38;24.90;99.90
58568;DHT22;44354;46.192;-1.076;2022-08-01T09:52:22;25.10;99.90
58568;DHT22;44354;46.192;-1.076;2022-08-01T09:54:56;25.30;99.90
58568;DHT22;44354;46.192;-1.076;2022-08-01T09:57:23;25.30;99.90
58568;DHT22;44354;46.192;-1.076;2022-08-01T09:59:51;25.60;99.90
58568;DHT22;44354;46.192;-1.076;2022-08-01T10:04:53;25.80;99.90
58568;DHT22;44354;46.192;-1.076;2022-08-01T10:07:22;26.00;99.90
58568;DHT22;44354;46.192;-1.076;2022-08-01T10:09:48;26.20;99.90
58568;DHT22;44354;46.192;-1.076;2022-08-01T10:12:19;26.30;99.90
58568;DHT22;44354;46.192;-1.076;2022-08-01T10:14:47;26.10;99.90
58568;DHT22;44354;46.192;-1.076;2022-08-01T10:17:16;26.10;99.90
58568;DHT22;44354;46.192;-1.076;2022-08-01T10:19:43;26.20;99.90
58568;DHT22;44354;46.192;-1.076;2022-08-01T10:22:11;26.20;99.90
58568;DHT22;44354;46.192;-1.076;2022-08-01T10:24:41;26.30;99.90
58568;DHT22;44354;46.192;-1.076;2022-08-01T10:27:09;26.40;99.90
58568;DHT22;44354;46.192;-1.076;2022-08-01T10:29:56;26.50;95.80
58568;DHT22;44354;46.192;-1.076;2022-08-01T10:32:23;26.40;99.90
58568;DHT22;44354;46.192;-1.076;2022-08-01T10:34:52;26.40;97.80
58568;DHT22;44354;46.192;-1.076;2022-08-01T10:37:18;26.40;99.90
58568;DHT22;44354;46.192;-1.076;2022-08-01T10:39:44;26.40;98.40
58568;DHT22;44354;46.192;-1.076;2022-08-01T10:42:11;26.70;95.30
58568;DHT22;44354;46.192;-1.076;2022-08-01T10:44:38;27.00;85.30
58568;DHT22;44354;46.192;-1.076;2022-08-01T10:47:09;26.90;88.00
58568;DHT22;44354;46.192;-1.076;2022-08-01T10:50:27;27.10;77.60
58568;DHT22;44354;46.192;-1.076;2022-08-01T10:52:25;27.00;67.30
58568;DHT22;44354;46.192;-1.076;2022-08-01T10:55:03;27.00;75.30
58568;DHT22;44354;46.192;-1.076;2022-08-01T10:57:45;26.90;88.10
58568;DHT22;44354;46.192;-1.076;2022-08-01T11:00:21;27.20;90.10
58568;DHT22;44354;46.192;-1.076;2022-08-01T11:03:00;27.50;82.70
58568;DHT22;44354;46.192;-1.076;2022-08-01T11:05:28;27.80;70.80
58568;DHT22;44354;46.192;-1.076;2022-08-01T11:07:55;27.70;57.80
58568;DHT22;44354;46.192;-1.076;2022-08-01T11:10:30;27.40;53.50
58568;DHT22;44354;46.192;-1.076;2022-08-01T11:12:58;26.90;82.00
58568;DHT22;44354;46.192;-1.076;2022-08-01T11:15:26;26.80;88.80
58568;DHT22;44354;46.192;-1.076;2022-08-01T11:17:54;26.20;99.90
58568;DHT22;44354;46.192;-1.076;2022-08-01T11:20:26;25.80;99.90
58568;DHT22;44354;46.192;-1.076;2022-08-01T11:25:25;26.20;99.90
58568;DHT22;44354;46.192;-1.076;2022-08-01T11:30:53;26.20;99.90
58568;DHT22;44354;46.192;-1.076;2022-08-01T11:41:26;26.50;99.90
58568;DHT22;44354;46.192;-1.076;2022-08-01T11:47:05;26.80;99.90
58568;DHT22;44354;46.192;-1.076;2022-08-01T11:49:45;26.90;99.90
58568;DHT22;44354;46.192;-1.076;2022-08-01T11:52:28;27.20;99.90
58568;DHT22;44354;46.192;-1.076;2022-08-01T11:54:55;27.30;99.90
58568;DHT22;44354;46.192;-1.076;2022-08-01T11:57:23;26.90;98.40
58568;DHT22;44354;46.192;-1.076;2022-08-01T11:59:51;26.90;99.90
58568;DHT22;44354;46.192;-1.076;2022-08-01T12:02:25;27.30;99.90
58568;DHT22;44354;46.192;-1.076;2022-08-01T12:05:05;27.50;98.40
58568;DHT22;44354;46.192;-1.076;2022-08-01T12:07:32;27.60;89.50
58568;DHT22;44354;46.192;-1.076;2022-08-01T12:10:13;27.50;93.00
58568;DHT22;44354;46.192;-1.076;2022-08-01T12:12:44;27.70;91.10
58568;DHT22;44354;46.192;-1.076;2022-08-01T12:15:11;27.60;89.50
58568;DHT22;44354;46.192;-1.076;2022-08-01T12:17:47;27.70;89.60
58568;DHT22;44354;46.192;-1.076;2022-08-01T12:20:15;27.30;92.30
58568;DHT22;44354;46.192;-1.076;2022-08-01T12:22:42;27.20;97.10
58568;DHT22;44354;46.192;-1.076;2022-08-01T12:25:09;27.20;98.60
58568;DHT22;44354;46.192;-1.076;2022-08-01T12:27:36;27.40;96.90
58568;DHT22;44354;46.192;-1.076;2022-08-01T12:30:08;27.30;94.90
58568;DHT22;44354;46.192;-1.076;2022-08-01T12:32:36;27.00;99.10
58568;DHT22;44354;46.192;-1.076;2022-08-01T12:35:04;26.80;99.90
58568;DHT22;44354;46.192;-1.076;2022-08-01T12:37:30;27.00;99.90
58568;DHT22;44354;46.192;-1.076;2022-08-01T12:39:56;27.20;99.90
58568;DHT22;44354;46.192;-1.076;2022-08-01T12:42:22;27.40;94.60
58568;DHT22;44354;46.192;-1.076;2022-08-01T12:44:50;27.30;91.30
58568;DHT22;44354;46.192;-1.076;2022-08-01T12:47:18;27.20;94.10
58568;DHT22;44354;46.192;-1.076;2022-08-01T12:49:46;27.10;96.20
58568;DHT22;44354;46.192;-1.076;2022-08-01T12:52:13;27.50;95.90
58568;DHT22;44354;46.192;-1.076;2022-08-01T12:55:01;27.80;91.00
58568;DHT22;44354;46.192;-1.076;2022-08-01T12:57:28;27.70;88.00
58568;DHT22;44354;46.192;-1.076;2022-08-01T13:02:36;27.60;86.20
58568;DHT22;44354;46.192;-1.076;2022-08-01T13:05:03;27.70;81.30
58568;DHT22;44354;46.192;-1.076;2022-08-01T13:07:58;27.70;93.60
58568;DHT22;44354;46.192;-1.076;2022-08-01T13:10:28;27.70;90.10
58568;DHT22;44354;46.192;-1.076;2022-08-01T13:12:57;27.60;92.40
58568;DHT22;44354;46.192;-1.076;2022-08-01T13:15:31;27.60;92.80
58568;DHT22;44354;46.192;-1.076;2022-08-01T13:17:59;27.80;88.10
58568;DHT22;44354;46.192;-1.076;2022-08-01T13:20:33;27.80;90.20
58568;DHT22;44354;46.192;-1.076;2022-08-01T13:23:13;27.90;83.40
58568;DHT22;44354;46.192;-1.076;2022-08-01T13:25:52;27.80;91.80
58568;DHT22;44354;46.192;-1.076;2022-08-01T13:28:27;27.80;91.30
58568;DHT22;44354;46.192;-1.076;2022-08-01T13:31:02;27.70;91.10
58568;DHT22;44354;46.192;-1.076;2022-08-01T13:33:45;27.90;79.80
58568;DHT22;44354;46.192;-1.076;2022-08-01T13:36:11;27.90;91.40
58568;DHT22;44354;46.192;-1.076;2022-08-01T13:38:38;27.90;84.80
58568;DHT22;44354;46.192;-1.076;2022-08-01T13:41:22;27.90;84.60
58568;DHT22;44354;46.192;-1.076;2022-08-01T13:43:49;27.80;82.40
58568;DHT22;44354;46.192;-1.076;2022-08-01T13:46:15;27.60;92.70
58568;DHT22;44354;46.192;-1.076;2022-08-01T13:48:40;27.50;93.40
58568;DHT22;44354;46.192;-1.076;2022-08-01T13:51:06;27.60;92.90
58568;DHT22;44354;46.192;-1.076;2022-08-01T13:53:32;27.80;86.80
58568;DHT22;44354;46.192;-1.076;2022-08-01T13:55:57;27.90;76.50
58568;DHT22;44354;46.192;-1.076;2022-08-01T13:58:23;27.90;72.30
58568;DHT22;44354;46.192;-1.076;2022-08-01T14:00:49;27.60;85.70
58568;DHT22;44354;46.192;-1.076;2022-08-01T14:03:15;27.50;91.90
58568;DHT22;44354;46.192;-1.076;2022-08-01T14:05:42;27.50;93.10
58568;DHT22;44354;46.192;-1.076;2022-08-01T14:08:08;27.50;93.80
58568;DHT22;44354;46.192;-1.076;2022-08-01T14:10:34;27.50;92.40
58568;DHT22;44354;46.192;-1.076;2022-08-01T14:13:00;27.40;97.90
58568;DHT22;44354;46.192;-1.076;2022-08-01T14:15:25;27.40;97.60
58568;DHT22;44354;46.192;-1.076;2022-08-01T14:17:51;27.70;94.60
58568;DHT22;44354;46.192;-1.076;2022-08-01T14:20:17;28.00;87.60
58568;DHT22;44354;46.192;-1.076;2022-08-01T14:22:46;27.70;93.60
58568;DHT22;44354;46.192;-1.076;2022-08-01T14:25:12;27.40;94.60
58568;DHT22;44354;46.192;-1.076;2022-08-01T14:27:37;27.50;90.30
58568;DHT22;44354;46.192;-1.076;2022-08-01T14:30:06;27.50;90.10
58568;DHT22;44354;46.192;-1.076;2022-08-01T14:32:32;27.30;91.90
58568;DHT22;44354;46.192;-1.076;2022-08-01T14:35:02;27.40;91.00
58568;DHT22;44354;46.192;-1.076;2022-08-01T14:37:28;27.30;93.80
58568;DHT22;44354;46.192;-1.076;2022-08-01T14:39:58;27.00;94.30
58568;DHT22;44354;46.192;-1.076;2022-08-01T14:42:24;26.90;99.90
58568;DHT22;44354;46.192;-1.076;2022-08-01T14:44:49;26.90;99.00
58568;DHT22;44354;46.192;-1.076;2022-08-01T14:47:16;26.90;98.40
58568;DHT22;44354;46.192;-1.076;2022-08-01T14:49:42;26.90;98.50
58568;DHT22;44354;46.192;-1.076;2022-08-01T14:52:07;26.90;98.10
58568;DHT22;44354;46.192;-1.076;2022-08-01T14:54:33;26.90;99.90
58568;DHT22;44354;46.192;-1.076;2022-08-01T14:56:58;26.80;98.90
58568;DHT22;44354;46.192;-1.076;2022-08-01T14:59:24;26.90;99.90
58568;DHT22;44354;46.192;-1.076;2022-08-01T15:01:50;26.90;98.00
58568;DHT22;44354;46.192;-1.076;2022-08-01T15:04:15;26.60;99.90
58568;DHT22;44354;46.192;-1.076;2022-08-01T15:06:43;26.50;99.90
58568;DHT22;44354;46.192;-1.076;2022-08-01T15:09:08;26.40;99.90
58568;DHT22;44354;46.192;-1.076;2022-08-01T15:11:34;26.30;99.90
58568;DHT22;44354;46.192;-1.076;2022-08-01T15:14:00;26.40;99.90
58568;DHT22;44354;46.192;-1.076;2022-08-01T15:16:44;26.10;99.90
58568;DHT22;44354;46.192;-1.076;2022-08-01T15:19:10;25.90;99.90
58568;DHT22;44354;46.192;-1.076;2022-08-01T15:21:35;26.00;99.90
58568;DHT22;44354;46.192;-1.076;2022-08-01T15:24:01;26.00;99.90
58568;DHT22;44354;46.192;-1.076;2022-08-01T15:26:27;26.10;99.90
58568;DHT22;44354;46.192;-1.076;2022-08-01T15:28:53;26.10;99.90
58568;DHT22;44354;46.192;-1.076;2022-08-01T15:31:19;26.20;99.90
58568;DHT22;44354;46.192;-1.076;2022-08-01T15:33:44;26.00;99.90
58568;DHT22;44354;46.192;-1.076;2022-08-01T15:36:10;26.00;99.90
58568;DHT22;44354;46.192;-1.076;2022-08-01T15:38:35;25.90;99.90
58568;DHT22;44354;46.192;-1.076;2022-08-01T15:41:01;25.90;99.90
58568;DHT22;44354;46.192;-1.076;2022-08-01T15:43:27;25.90;99.90
58568;DHT22;44354;46.192;-1.076;2022-08-01T15:45:53;25.90;99.90
58568;DHT22;44354;46.192;-1.076;2022-08-01T15:48:18;25.80;99.90
58568;DHT22;44354;46.192;-1.076;2022-08-01T15:50:44;25.80;99.90
58568;DHT22;44354;46.192;-1.076;2022-08-01T15:53:10;25.80;99.90
58568;DHT22;44354;46.192;-1.076;2022-08-01T15:55:37;25.90;99.90
58568;DHT22;44354;46.192;-1.076;2022-08-01T15:58:03;26.00;99.90
58568;DHT22;44354;46.192;-1.076;2022-08-01T16:00:28;26.20;99.90